sensor_id;sensor_type;location;lat;lon;timestamp;pressure;altitude;pressure_sealevel;temperature;humidity
13974;BME280;7060;43.770;4.008;2023-01-16T00:00:01;100702.03;;;2.33;69.63
13974;BME280;7060;43.770;4.008;2023-01-16T00:02:34;100356.59;;;0.08;69.61
13974;BME280;7060;43.770;4.008;2023-01-16T00:05:03;100484.97;;;1.05;69.54
13974;BME280;7060;43.770;4.008;2023-01-16T00:07:33;100744.91;;;2.65;69.62
13974;BME280;7060;43.770;4.008;2023-01-16T00:10:06;100693.38;;;2.31;69.67
13974;BME280;7060;43.770;4.008;2023-01-16T00:12:36;100495.50;;;1.05;69.89
13974;BME280;7060;43.770;4.008;2023-01-16T00:15:12;100724.09;;;2.47;69.45
13974;BME280;7060;43.770;4.008;2023-01-16T00:17:42;100634.13;;;1.94;69.70
13974;BME280;7060;43.770;4.008;2023-01-16T00:20:11;100631.00;;;1.88;70.23
13974;BME280;7060;43.770;4.008;2023-01-16T00:22:41;100724.66;;;2.37;70.57
13974;BME280;7060;43.770;4.008;2023-01-16T00:25:09;100705.25;;;2.38;70.19
13974;BME280;7060;43.770;4.008;2023-01-16T00:27:39;100662.28;;;2.08;70.35
13974;BME280;7060;43.770;4.008;2023-01-16T00:30:10;100370.88;;;0.48;70.21
13974;BME280;7060;43.770;4.008;2023-01-16T00:32:42;100661.06;;;2.28;70.46
13974;BME280;7060;43.770;4.008;2023-01-16T00:35:16;100496.22;;;1.37;70.57
13974;BME280;7060;43.770;4.008;2023-01-16T00:37:45;100423.00;;;0.99;70.24
13974;BME280;7060;43.770;4.008;2023-01-16T00:40:14;100574.72;;;1.89;70.34
13974;BME280;7060;43.770;4.008;2023-01-16T00:42:44;100487.84;;;1.45;70.65
13974;BME280;7060;43.770;4.008;2023-01-16T00:45:14;100646.34;;;2.38;70.78
13974;BME280;7060;43.770;4.008;2023-01-16T00:47:45;100456.50;;;1.26;70.88
13974;BME280;7060;43.770;4.008;2023-01-16T00:50:27;100599.28;;;2.03;71.27
13974;BME280;7060;43.770;4.008;2023-01-16T00:52:56;100473.16;;;1.41;71.17
13974;BME280;7060;43.770;4.008;2023-01-16T00:55:28;100431.75;;;1.28;70.95
13974;BME280;7060;43.770;4.008;2023-01-16T00:57:57;100524.91;;;1.98;71.17
13974;BME280;7060;43.770;4.008;2023-01-16T01:00:36;100361.72;;;1.12;70.62
13974;BME280;7060;43.770;4.008;2023-01-16T01:03:06;100556.75;;;2.36;71.13
13974;BME280;7060;43.770;4.008;2023-01-16T01:05:36;100505.56;;;2.12;71.48
13974;BME280;7060;43.770;4.008;2023-01-16T01:08:07;100595.88;;;2.71;71.24
13974;BME280;7060;43.770;4.008;2023-01-16T01:10:37;100606.97;;;2.76;71.97
13974;BME280;7060;43.770;4.008;2023-01-16T01:13:06;100587.47;;;2.79;71.36
13974;BME280;7060;43.770;4.008;2023-01-16T01:15:35;100443.38;;;1.95;71.46
13974;BME280;7060;43.770;4.008;2023-01-16T01:18:05;100423.88;;;1.84;71.81
13974;BME280;7060;43.770;4.008;2023-01-16T01:20:36;100456.09;;;2.16;71.92
13974;BME280;7060;43.770;4.008;2023-01-16T01:23:06;100342.91;;;1.59;71.69
13974;BME280;7060;43.770;4.008;2023-01-16T01:25:37;100540.22;;;2.74;72.07
13974;BME280;7060;43.770;4.008;2023-01-16T01:28:07;100465.03;;;2.27;71.69
13974;BME280;7060;43.770;4.008;2023-01-16T01:30:37;100463.75;;;2.33;71.38
13974;BME280;7060;43.770;4.008;2023-01-16T01:33:08;100419.78;;;2.06;71.85
13974;BME280;7060;43.770;4.008;2023-01-16T01:35:44;100504.22;;;2.73;71.46
13974;BME280;7060;43.770;4.008;2023-01-16T01:38:14;100510.75;;;2.67;71.87
13974;BME280;7060;43.770;4.008;2023-01-16T01:43:56;100430.13;;;2.10;71.84
13974;BME280;7060;43.770;4.008;2023-01-16T01:46:29;100504.16;;;2.60;72.42
13974;BME280;7060;43.770;4.008;2023-01-16T01:49:04;100432.91;;;2.21;71.64
13974;BME280;7060;43.770;4.008;2023-01-16T01:51:38;100497.41;;;2.56;72.13
13974;BME280;7060;43.770;4.008;2023-01-16T01:54:22;100250.09;;;1.14;72.01
13974;BME280;7060;43.770;4.008;2023-01-16T01:56:55;100398.03;;;2.03;72.48
13974;BME280;7060;43.770;4.008;2023-01-16T01:59:27;100394.91;;;2.11;71.93
13974;BME280;7060;43.770;4.008;2023-01-16T02:01:59;100471.16;;;2.67;72.03
13974;BME280;7060;43.770;4.008;2023-01-16T02:04:34;100210.63;;;1.14;72.01
13974;BME280;7060;43.770;4.008;2023-01-16T02:07:07;100415.22;;;2.35;72.38
13974;BME280;7060;43.770;4.008;2023-01-16T02:09:36;100457.75;;;2.70;72.21
13974;BME280;7060;43.770;4.008;2023-01-16T02:12:08;100195.13;;;1.10;72.29
13974;BME280;7060;43.770;4.008;2023-01-16T02:14:40;100185.91;;;1.29;71.84
13974;BME280;7060;43.770;4.008;2023-01-16T02:17:12;100225.59;;;1.53;72.44
13974;BME280;7060;43.770;4.008;2023-01-16T02:20:16;100324.44;;;2.00;72.31
13974;BME280;7060;43.770;4.008;2023-01-16T02:26:45;100218.69;;;1.65;72.17
13974;BME280;7060;43.770;4.008;2023-01-16T02:29:40;100064.06;;;0.88;72.31
13974;BME280;7060;43.770;4.008;2023-01-16T02:32:25;100297.25;;;2.37;72.63
13974;BME280;7060;43.770;4.008;2023-01-16T02:35:06;100301.81;;;2.48;72.92
13974;BME280;7060;43.770;4.008;2023-01-16T02:37:48;100373.63;;;3.04;72.99
13974;BME280;7060;43.770;4.008;2023-01-16T02:40:35;100345.53;;;2.78;72.39
13974;BME280;7060;43.770;4.008;2023-01-16T02:43:15;100371.50;;;2.96;73.64
13974;BME280;7060;43.770;4.008;2023-01-16T02:45:52;100383.66;;;2.99;72.97
13974;BME280;7060;43.770;4.008;2023-01-16T02:48:29;100267.09;;;2.42;72.92
13974;BME280;7060;43.770;4.008;2023-01-16T02:51:04;100260.75;;;2.44;73.26
13974;BME280;7060;43.770;4.008;2023-01-16T02:53:40;100184.69;;;2.00;73.11
13974;BME280;7060;43.770;4.008;2023-01-16T02:56:14;100060.19;;;1.46;73.31
13974;BME280;7060;43.770;4.008;2023-01-16T02:58:46;100313.06;;;3.14;73.06
13974;BME280;7060;43.770;4.008;2023-01-16T03:01:17;100307.97;;;3.23;73.49
13974;BME280;7060;43.770;4.008;2023-01-16T03:03:50;100112.31;;;2.17;73.12
13974;BME280;7060;43.770;4.008;2023-01-16T03:06:43;100216.97;;;2.91;72.84
13974;BME280;7060;43.770;4.008;2023-01-16T03:09:32;100074.88;;;2.24;72.70
13974;BME280;7060;43.770;4.008;2023-01-16T03:12:17;100195.41;;;3.10;72.98
13974;BME280;7060;43.770;4.008;2023-01-16T03:14:55;100190.66;;;3.26;72.97
13974;BME280;7060;43.770;4.008;2023-01-16T03:17:45;100235.75;;;3.59;72.60
13974;BME280;7060;43.770;4.008;2023-01-16T03:20:30;100164.66;;;3.43;72.36
13974;BME280;7060;43.770;4.008;2023-01-16T03:23:18;100212.06;;;3.93;72.53
13974;BME280;7060;43.770;4.008;2023-01-16T03:25:55;100225.22;;;4.05;72.09
13974;BME280;7060;43.770;4.008;2023-01-16T03:28:33;100160.31;;;3.66;72.31
13974;BME280;7060;43.770;4.008;2023-01-16T03:31:11;100044.28;;;2.93;72.21
13974;BME280;7060;43.770;4.008;2023-01-16T03:33:46;100187.25;;;3.71;72.54
13974;BME280;7060;43.770;4.008;2023-01-16T03:36:31;99895.41;;;2.02;72.49
13974;BME280;7060;43.770;4.008;2023-01-16T03:39:10;100077.63;;;3.18;72.10
13974;BME280;7060;43.770;4.008;2023-01-16T03:41:43;100042.03;;;3.00;72.04
13974;BME280;7060;43.770;4.008;2023-01-16T03:44:21;99878.31;;;2.08;72.32
13974;BME280;7060;43.770;4.008;2023-01-16T03:46:52;100218.22;;;4.04;72.51
13974;BME280;7060;43.770;4.008;2023-01-16T03:49:26;100144.44;;;3.66;72.38
13974;BME280;7060;43.770;4.008;2023-01-16T03:52:01;100086.06;;;3.23;72.20
13974;BME280;7060;43.770;4.008;2023-01-16T03:54:36;99968.66;;;2.81;72.33
13974;BME280;7060;43.770;4.008;2023-01-16T03:57:13;100011.59;;;3.18;71.66
13974;BME280;7060;43.770;4.008;2023-01-16T03:59:45;100174.00;;;4.18;72.05
13974;BME280;7060;43.770;4.008;2023-01-16T04:02:18;100127.06;;;3.97;71.41
13974;BME280;7060;43.770;4.008;2023-01-16T04:04:51;100008.78;;;3.32;71.46
13974;BME280;7060;43.770;4.008;2023-01-16T04:07:31;99937.34;;;2.88;71.31
13974;BME280;7060;43.770;4.008;2023-01-16T04:10:05;100139.63;;;4.18;71.17
13974;BME280;7060;43.770;4.008;2023-01-16T04:12:40;100143.09;;;4.29;70.83
13974;BME280;7060;43.770;4.008;2023-01-16T04:15:11;100023.09;;;3.74;70.84
13974;BME280;7060;43.770;4.008;2023-01-16T04:17:50;99963.84;;;3.43;70.94
13974;BME280;7060;43.770;4.008;2023-01-16T04:20:21;100023.22;;;3.84;70.82
13974;BME280;7060;43.770;4.008;2023-01-16T04:22:53;100010.00;;;3.73;70.42
13974;BME280;7060;43.770;4.008;2023-01-16T04:25:22;100073.94;;;4.23;70.51
13974;BME280;7060;43.770;4.008;2023-01-16T04:27:51;100000.38;;;3.72;71.00
13974;BME280;7060;43.770;4.008;2023-01-16T04:30:20;100076.22;;;4.05;71.02
13974;BME280;7060;43.770;4.008;2023-01-16T04:32:48;99872.03;;;2.67;71.53
13974;BME280;7060;43.770;4.008;2023-01-16T04:35:19;100062.53;;;3.89;71.90
13974;BME280;7060;43.770;4.008;2023-01-16T04:37:49;99994.72;;;3.32;71.60
13974;BME280;7060;43.770;4.008;2023-01-16T04:40:26;100054.50;;;3.90;71.64
13974;BME280;7060;43.770;4.008;2023-01-16T04:42:54;99977.53;;;3.49;72.13
13974;BME280;7060;43.770;4.008;2023-01-16T04:45:24;100056.03;;;3.93;72.08
13974;BME280;7060;43.770;4.008;2023-01-16T04:47:56;99894.16;;;3.11;72.14
13974;BME280;7060;43.770;4.008;2023-01-16T04:50:29;99923.50;;;3.41;72.08
13974;BME280;7060;43.770;4.008;2023-01-16T04:53:01;100006.63;;;3.93;71.92
13974;BME280;7060;43.770;4.008;2023-01-16T04:55:33;99912.91;;;3.41;72.28
13974;BME280;7060;43.770;4.008;2023-01-16T04:58:01;99926.84;;;3.43;72.47
13974;BME280;7060;43.770;4.008;2023-01-16T05:00:30;99817.13;;;2.95;72.39
13974;BME280;7060;43.770;4.008;2023-01-16T05:02:59;99831.88;;;2.97;72.94
13974;BME280;7060;43.770;4.008;2023-01-16T05:05:30;99904.03;;;3.42;72.88
13974;BME280;7060;43.770;4.008;2023-01-16T05:08:03;99992.44;;;3.94;72.50
13974;BME280;7060;43.770;4.008;2023-01-16T05:10:46;99922.66;;;3.41;72.57
13974;BME280;7060;43.770;4.008;2023-01-16T05:13:15;99935.75;;;3.54;72.86
13974;BME280;7060;43.770;4.008;2023-01-16T05:15:43;99834.53;;;2.97;72.58
13974;BME280;7060;43.770;4.008;2023-01-16T05:18:13;99959.06;;;3.60;73.05
13974;BME280;7060;43.770;4.008;2023-01-16T05:20:42;99923.75;;;3.50;73.36
13974;BME280;7060;43.770;4.008;2023-01-16T05:23:11;99943.91;;;3.39;72.80
13974;BME280;7060;43.770;4.008;2023-01-16T05:25:40;100008.56;;;3.91;73.61
13974;BME280;7060;43.770;4.008;2023-01-16T05:28:14;99909.56;;;3.39;73.22
13974;BME280;7060;43.770;4.008;2023-01-16T05:30:43;99991.59;;;3.94;73.19
13974;BME280;7060;43.770;4.008;2023-01-16T05:33:13;99911.97;;;3.42;73.03
13974;BME280;7060;43.770;4.008;2023-01-16T05:35:44;99894.19;;;3.45;73.34
13974;BME280;7060;43.770;4.008;2023-01-16T05:38:12;100004.47;;;3.98;73.35
13974;BME280;7060;43.770;4.008;2023-01-16T05:40:43;99920.09;;;3.73;73.34
13974;BME280;7060;43.770;4.008;2023-01-16T05:43:14;99992.31;;;4.07;72.95
13974;BME280;7060;43.770;4.008;2023-01-16T05:45:45;99950.13;;;4.05;73.07
13974;BME280;7060;43.770;4.008;2023-01-16T05:48:13;99959.63;;;4.08;73.52
13974;BME280;7060;43.770;4.008;2023-01-16T05:50:43;99837.97;;;3.54;73.16
13974;BME280;7060;43.770;4.008;2023-01-16T05:53:12;99788.41;;;3.24;73.40
13974;BME280;7060;43.770;4.008;2023-01-16T05:55:45;99939.97;;;4.22;73.55
13974;BME280;7060;43.770;4.008;2023-01-16T05:58:16;99942.97;;;4.28;73.39
13974;BME280;7060;43.770;4.008;2023-01-16T06:00:47;99925.88;;;4.32;73.10
13974;BME280;7060;43.770;4.008;2023-01-16T06:03:15;99921.16;;;4.36;73.54
13974;BME280;7060;43.770;4.008;2023-01-16T06:05:45;99913.69;;;4.41;72.92
13974;BME280;7060;43.770;4.008;2023-01-16T06:08:13;99909.72;;;4.47;72.86
13974;BME280;7060;43.770;4.008;2023-01-16T06:10:42;99910.53;;;4.47;72.70
13974;BME280;7060;43.770;4.008;2023-01-16T06:13:12;99910.53;;;4.47;73.57
13974;BME280;7060;43.770;4.008;2023-01-16T06:15:43;99910.53;;;4.47;73.50
13974;BME280;7060;43.770;4.008;2023-01-16T06:18:12;99905.38;;;4.46;73.96
13974;BME280;7060;43.770;4.008;2023-01-16T06:20:42;99897.44;;;4.46;74.34
13974;BME280;7060;43.770;4.008;2023-01-16T06:23:10;99910.53;;;4.47;74.01
13974;BME280;7060;43.770;4.008;2023-01-16T06:25:39;99875.72;;;4.31;74.29
13974;BME280;7060;43.770;4.008;2023-01-16T06:28:09;99872.56;;;4.37;74.11
13974;BME280;7060;43.770;4.008;2023-01-16T06:30:37;99851.78;;;4.32;74.91
13974;BME280;7060;43.770;4.008;2023-01-16T06:33:07;99886.66;;;4.58;75.03
13974;BME280;7060;43.770;4.008;2023-01-16T06:35:36;99884.13;;;4.57;74.88
13974;BME280;7060;43.770;4.008;2023-01-16T06:38:04;99875.94;;;4.60;74.84
13974;BME280;7060;43.770;4.008;2023-01-16T06:40:34;99838.03;;;4.38;75.03
13974;BME280;7060;43.770;4.008;2023-01-16T06:43:02;99883.88;;;4.60;75.73
13974;BME280;7060;43.770;4.008;2023-01-16T06:45:31;99834.94;;;4.33;75.89
13974;BME280;7060;43.770;4.008;2023-01-16T06:48:01;99858.84;;;4.64;75.59
13974;BME280;7060;43.770;4.008;2023-01-16T06:50:32;99797.69;;;4.25;75.44
13974;BME280;7060;43.770;4.008;2023-01-16T06:53:00;99845.72;;;4.62;75.96
13974;BME280;7060;43.770;4.008;2023-01-16T06:55:30;99857.16;;;4.63;75.93
13974;BME280;7060;43.770;4.008;2023-01-16T06:57:59;99744.06;;;4.02;75.75
13974;BME280;7060;43.770;4.008;2023-01-16T07:00:29;99841.28;;;4.63;75.37
13974;BME280;7060;43.770;4.008;2023-01-16T07:02:58;99845.13;;;4.59;76.07
13974;BME280;7060;43.770;4.008;2023-01-16T07:05:28;99854.63;;;4.61;75.59
13974;BME280;7060;43.770;4.008;2023-01-16T07:07:58;99852.00;;;4.61;75.68
13974;BME280;7060;43.770;4.008;2023-01-16T07:10:28;99837.19;;;4.59;75.97
13974;BME280;7060;43.770;4.008;2023-01-16T07:12:56;99838.28;;;4.56;76.25
13974;BME280;7060;43.770;4.008;2023-01-16T07:15:27;99837.19;;;4.59;76.06
13974;BME280;7060;43.770;4.008;2023-01-16T07:18:14;99821.31;;;4.59;75.81
13974;BME280;7060;43.770;4.008;2023-01-16T07:21:03;99752.53;;;4.17;75.85
13974;BME280;7060;43.770;4.008;2023-01-16T07:23:54;99773.88;;;4.25;75.60
13974;BME280;7060;43.770;4.008;2023-01-16T07:26:26;99825.91;;;4.57;76.25
13974;BME280;7060;43.770;4.008;2023-01-16T07:28:58;99789.19;;;4.42;75.79
13974;BME280;7060;43.770;4.008;2023-01-16T07:31:26;99796.41;;;4.61;75.93
13974;BME280;7060;43.770;4.008;2023-01-16T07:33:56;99752.31;;;4.30;75.93
13974;BME280;7060;43.770;4.008;2023-01-16T07:36:26;99789.41;;;4.60;75.91
13974;BME280;7060;43.770;4.008;2023-01-16T07:38:57;99784.13;;;4.60;75.96
13974;BME280;7060;43.770;4.008;2023-01-16T07:41:25;99774.97;;;4.64;76.05
13974;BME280;7060;43.770;4.008;2023-01-16T07:43:55;99747.78;;;4.62;76.19
13974;BME280;7060;43.770;4.008;2023-01-16T07:46:24;99755.19;;;4.68;75.75
13974;BME280;7060;43.770;4.008;2023-01-16T07:48:53;99752.81;;;4.65;75.97
13974;BME280;7060;43.770;4.008;2023-01-16T07:51:23;99754.47;;;4.66;76.09
13974;BME280;7060;43.770;4.008;2023-01-16T07:53:52;99747.50;;;4.65;75.93
13974;BME280;7060;43.770;4.008;2023-01-16T07:56:22;99524.59;;;3.30;75.78
13974;BME280;7060;43.770;4.008;2023-01-16T07:58:51;99755.59;;;4.64;76.04
13974;BME280;7060;43.770;4.008;2023-01-16T08:01:21;99731.81;;;4.73;76.02
13974;BME280;7060;43.770;4.008;2023-01-16T08:03:49;99720.09;;;4.76;76.27
13974;BME280;7060;43.770;4.008;2023-01-16T08:06:18;99727.78;;;4.79;76.31
13974;BME280;7060;43.770;4.008;2023-01-16T08:08:47;99713.16;;;4.85;75.57
13974;BME280;7060;43.770;4.008;2023-01-16T08:11:17;99707.88;;;4.85;76.34
13974;BME280;7060;43.770;4.008;2023-01-16T08:14:07;99470.72;;;3.42;76.49
13974;BME280;7060;43.770;4.008;2023-01-16T08:16:38;99707.25;;;5.02;76.72
13974;BME280;7060;43.770;4.008;2023-01-16T08:19:07;99651.81;;;4.79;76.37
13974;BME280;7060;43.770;4.008;2023-01-16T08:21:35;99721.69;;;5.28;76.03
13974;BME280;7060;43.770;4.008;2023-01-16T08:24:08;99694.94;;;5.51;75.83
13974;BME280;7060;43.770;4.008;2023-01-16T08:26:53;99696.88;;;5.77;76.07
13974;BME280;7060;43.770;4.008;2023-01-16T08:29:23;99624.34;;;5.50;75.99
13974;BME280;7060;43.770;4.008;2023-01-16T08:31:53;99573.44;;;5.27;74.92
13974;BME280;7060;43.770;4.008;2023-01-16T08:34:21;99718.88;;;6.36;74.86
13974;BME280;7060;43.770;4.008;2023-01-16T08:36:51;99571.53;;;5.75;75.20
13974;BME280;7060;43.770;4.008;2023-01-16T08:39:20;99644.03;;;6.50;74.33
13974;BME280;7060;43.770;4.008;2023-01-16T08:41:54;99533.63;;;6.02;73.36
13974;BME280;7060;43.770;4.008;2023-01-16T08:44:44;99656.56;;;7.12;73.15
13974;BME280;7060;43.770;4.008;2023-01-16T08:47:32;99711.25;;;7.78;72.58
13974;BME280;7060;43.770;4.008;2023-01-16T08:50:26;99700.31;;;7.99;71.40
13974;BME280;7060;43.770;4.008;2023-01-16T08:53:13;99698.66;;;8.24;71.11
13974;BME280;7060;43.770;4.008;2023-01-16T08:55:46;99455.31;;;6.79;69.20
13974;BME280;7060;43.770;4.008;2023-01-16T08:58:15;99693.84;;;8.27;69.10
13974;BME280;7060;43.770;4.008;2023-01-16T09:00:52;99627.91;;;7.95;69.36
13974;BME280;7060;43.770;4.008;2023-01-16T09:03:20;99605.63;;;7.96;68.67
13974;BME280;7060;43.770;4.008;2023-01-16T09:05:50;99604.66;;;8.05;67.95
13974;BME280;7060;43.770;4.008;2023-01-16T09:08:19;99615.69;;;8.10;67.39
13974;BME280;7060;43.770;4.008;2023-01-16T09:10:53;99462.50;;;7.30;67.23
13974;BME280;7060;43.770;4.008;2023-01-16T09:13:39;99581.91;;;8.11;66.82
13974;BME280;7060;43.770;4.008;2023-01-16T09:16:23;99684.09;;;8.70;65.36
13974;BME280;7060;43.770;4.008;2023-01-16T09:18:52;99602.34;;;8.28;64.07
13974;BME280;7060;43.770;4.008;2023-01-16T09:21:21;99522.72;;;7.83;64.01
13974;BME280;7060;43.770;4.008;2023-01-16T09:23:52;99686.91;;;8.68;63.81
13974;BME280;7060;43.770;4.008;2023-01-16T09:26:21;99627.34;;;8.09;63.27
13974;BME280;7060;43.770;4.008;2023-01-16T09:28:50;99635.63;;;8.06;63.50
13974;BME280;7060;43.770;4.008;2023-01-16T09:31:18;99560.84;;;7.66;62.94
13974;BME280;7060;43.770;4.008;2023-01-16T09:33:49;99586.16;;;7.96;62.97
13974;BME280;7060;43.770;4.008;2023-01-16T09:36:20;99709.38;;;8.66;63.17
13974;BME280;7060;43.770;4.008;2023-01-16T09:38:54;99633.91;;;8.23;62.89
13974;BME280;7060;43.770;4.008;2023-01-16T09:41:32;99480.94;;;7.49;62.81
13974;BME280;7060;43.770;4.008;2023-01-16T09:44:25;99478.97;;;7.52;62.67
13974;BME280;7060;43.770;4.008;2023-01-16T09:46:55;99439.56;;;7.29;62.45
13974;BME280;7060;43.770;4.008;2023-01-16T09:49:30;99525.22;;;7.59;61.75
13974;BME280;7060;43.770;4.008;2023-01-16T09:52:03;99667.47;;;8.42;61.78
13974;BME280;7060;43.770;4.008;2023-01-16T09:54:57;99679.41;;;8.30;62.66
13974;BME280;7060;43.770;4.008;2023-01-16T09:57:45;99682.31;;;8.19;62.88
13974;BME280;7060;43.770;4.008;2023-01-16T10:00:43;99491.50;;;7.15;62.85
13974;BME280;7060;43.770;4.008;2023-01-16T10:03:14;99556.91;;;7.70;63.04
13974;BME280;7060;43.770;4.008;2023-01-16T10:05:48;99391.16;;;6.74;62.63
13974;BME280;7060;43.770;4.008;2023-01-16T10:08:29;99671.22;;;8.57;62.66
13974;BME280;7060;43.770;4.008;2023-01-16T10:11:08;99672.59;;;8.69;61.95
13974;BME280;7060;43.770;4.008;2023-01-16T10:13:59;99534.94;;;7.94;62.00
13974;BME280;7060;43.770;4.008;2023-01-16T10:16:37;99586.53;;;8.35;61.69
13974;BME280;7060;43.770;4.008;2023-01-16T10:19:17;99598.78;;;8.54;61.41
13974;BME280;7060;43.770;4.008;2023-01-16T10:22:04;99509.00;;;8.04;61.04
13974;BME280;7060;43.770;4.008;2023-01-16T10:24:44;99558.63;;;8.47;60.58
13974;BME280;7060;43.770;4.008;2023-01-16T10:27:32;99680.72;;;9.36;60.81
13974;BME280;7060;43.770;4.008;2023-01-16T10:30:04;99548.25;;;8.94;60.89
13974;BME280;7060;43.770;4.008;2023-01-16T10:32:43;99651.53;;;9.50;60.22
13974;BME280;7060;43.770;4.008;2023-01-16T10:35:19;99601.50;;;9.28;59.79
13974;BME280;7060;43.770;4.008;2023-01-16T10:38:00;99633.03;;;9.57;59.90
13974;BME280;7060;43.770;4.008;2023-01-16T10:40:35;99555.97;;;9.22;59.74
13974;BME280;7060;43.770;4.008;2023-01-16T10:43:10;99307.75;;;7.53;59.39
13974;BME280;7060;43.770;4.008;2023-01-16T10:46:15;99625.34;;;9.70;59.78
13974;BME280;7060;43.770;4.008;2023-01-16T10:49:18;99468.78;;;8.90;59.86
13974;BME280;7060;43.770;4.008;2023-01-16T10:51:59;99580.16;;;9.77;59.43
13974;BME280;7060;43.770;4.008;2023-01-16T10:54:39;99614.16;;;10.07;59.22
13974;BME280;7060;43.770;4.008;2023-01-16T10:57:14;99516.09;;;9.69;59.11
13974;BME280;7060;43.770;4.008;2023-01-16T10:59:44;99582.88;;;10.24;58.55
13974;BME280;7060;43.770;4.008;2023-01-16T11:02:18;99502.22;;;9.90;58.17
13974;BME280;7060;43.770;4.008;2023-01-16T11:05:27;99580.31;;;10.47;57.44
13974;BME280;7060;43.770;4.008;2023-01-16T11:08:05;99572.25;;;10.55;57.15
13974;BME280;7060;43.770;4.008;2023-01-16T11:10:42;99494.13;;;10.14;57.12
13974;BME280;7060;43.770;4.008;2023-01-16T11:13:13;99577.88;;;10.68;57.03
13974;BME280;7060;43.770;4.008;2023-01-16T11:16:03;99427.25;;;9.99;56.73
13974;BME280;7060;43.770;4.008;2023-01-16T11:18:51;99471.31;;;10.34;56.23
13974;BME280;7060;43.770;4.008;2023-01-16T11:21:33;99445.00;;;10.23;56.16
13974;BME280;7060;43.770;4.008;2023-01-16T11:24:13;99391.00;;;10.05;56.38
13974;BME280;7060;43.770;4.008;2023-01-16T11:26:48;99503.47;;;10.80;55.88
13974;BME280;7060;43.770;4.008;2023-01-16T11:29:18;99517.22;;;11.00;54.86
13974;BME280;7060;43.770;4.008;2023-01-16T11:31:55;99468.94;;;10.70;54.44
13974;BME280;7060;43.770;4.008;2023-01-16T11:34:26;99459.91;;;10.71;53.87
13974;BME280;7060;43.770;4.008;2023-01-16T11:36:58;99220.38;;;9.41;53.22
13974;BME280;7060;43.770;4.008;2023-01-16T11:39:31;99499.03;;;11.18;53.23
13974;BME280;7060;43.770;4.008;2023-01-16T11:42:08;99448.22;;;10.95;53.42
13974;BME280;7060;43.770;4.008;2023-01-16T11:45:12;99491.97;;;11.25;53.17
13974;BME280;7060;43.770;4.008;2023-01-16T11:48:02;99495.69;;;11.16;52.99
13974;BME280;7060;43.770;4.008;2023-01-16T11:50:55;99432.59;;;10.84;53.20
13974;BME280;7060;43.770;4.008;2023-01-16T11:53:29;99486.91;;;11.30;53.36
13974;BME280;7060;43.770;4.008;2023-01-16T11:59:25;99476.19;;;11.30;53.55
13974;BME280;7060;43.770;4.008;2023-01-16T12:02:06;99437.09;;;11.06;53.12
13974;BME280;7060;43.770;4.008;2023-01-16T12:04:55;99480.97;;;11.35;52.50
13974;BME280;7060;43.770;4.008;2023-01-16T12:07:51;99473.88;;;11.27;52.20
13974;BME280;7060;43.770;4.008;2023-01-16T12:10:34;99280.53;;;10.06;52.85
13974;BME280;7060;43.770;4.008;2023-01-16T12:13:08;99275.50;;;10.11;52.78
13974;BME280;7060;43.770;4.008;2023-01-16T12:16:07;99470.56;;;11.25;51.83
13974;BME280;7060;43.770;4.008;2023-01-16T12:18:46;99305.75;;;10.26;52.00
13974;BME280;7060;43.770;4.008;2023-01-16T12:21:30;99413.06;;;10.83;52.11
13974;BME280;7060;43.770;4.008;2023-01-16T12:24:25;99249.31;;;10.06;51.66
13974;BME280;7060;43.770;4.008;2023-01-16T12:27:12;99449.34;;;11.24;51.36
13974;BME280;7060;43.770;4.008;2023-01-16T12:29:55;99379.13;;;10.84;51.38
13974;BME280;7060;43.770;4.008;2023-01-16T12:32:43;99363.69;;;10.71;51.60
13974;BME280;7060;43.770;4.008;2023-01-16T12:35:34;99415.25;;;11.03;52.25
13974;BME280;7060;43.770;4.008;2023-01-16T12:38:15;99240.72;;;9.96;51.32
13974;BME280;7060;43.770;4.008;2023-01-16T12:41:00;99229.81;;;9.83;51.07
13974;BME280;7060;43.770;4.008;2023-01-16T12:44:01;99238.03;;;9.96;51.21
13974;BME280;7060;43.770;4.008;2023-01-16T12:46:44;99424.25;;;11.25;50.37
13974;BME280;7060;43.770;4.008;2023-01-16T12:49:29;99419.06;;;11.23;49.99
13974;BME280;7060;43.770;4.008;2023-01-16T12:52:19;99411.41;;;11.20;49.32
13974;BME280;7060;43.770;4.008;2023-01-16T12:55:04;99373.09;;;11.05;48.73
13974;BME280;7060;43.770;4.008;2023-01-16T12:57:54;99387.69;;;11.17;48.47
13974;BME280;7060;43.770;4.008;2023-01-16T13:00:32;99297.94;;;10.62;48.17
13974;BME280;7060;43.770;4.008;2023-01-16T13:03:16;99248.75;;;10.34;48.34
13974;BME280;7060;43.770;4.008;2023-01-16T13:05:53;99373.13;;;11.19;48.90
13974;BME280;7060;43.770;4.008;2023-01-16T13:08:27;99350.84;;;11.04;48.65
13974;BME280;7060;43.770;4.008;2023-01-16T13:11:04;99288.78;;;10.79;48.40
13974;BME280;7060;43.770;4.008;2023-01-16T13:13:58;99296.00;;;10.94;48.42
13974;BME280;7060;43.770;4.008;2023-01-16T13:16:31;99367.34;;;11.31;48.20
13974;BME280;7060;43.770;4.008;2023-01-16T13:19:04;99360.50;;;11.28;47.42
13974;BME280;7060;43.770;4.008;2023-01-16T13:21:39;99165.91;;;10.04;47.05
13974;BME280;7060;43.770;4.008;2023-01-16T13:24:26;99389.00;;;11.21;46.78
13974;BME280;7060;43.770;4.008;2023-01-16T13:27:02;99314.78;;;10.85;46.83
13974;BME280;7060;43.770;4.008;2023-01-16T13:29:36;99025.34;;;8.91;46.95
13974;BME280;7060;43.770;4.008;2023-01-16T13:32:18;99314.16;;;10.61;47.49
13974;BME280;7060;43.770;4.008;2023-01-16T13:34:56;99217.50;;;9.97;47.83
13974;BME280;7060;43.770;4.008;2023-01-16T13:37:49;99258.75;;;10.17;48.69
13974;BME280;7060;43.770;4.008;2023-01-16T13:40:37;99384.66;;;10.82;49.44
13974;BME280;7060;43.770;4.008;2023-01-16T13:43:16;99252.28;;;9.89;51.07
13974;BME280;7060;43.770;4.008;2023-01-16T13:46:07;99344.81;;;10.27;53.08
13974;BME280;7060;43.770;4.008;2023-01-16T13:48:39;99396.34;;;10.36;55.15
13974;BME280;7060;43.770;4.008;2023-01-16T13:51:14;99226.16;;;9.14;57.17
13974;BME280;7060;43.770;4.008;2023-01-16T13:53:49;99308.13;;;9.36;58.52
13974;BME280;7060;43.770;4.008;2023-01-16T13:56:21;99162.16;;;8.20;58.90
13974;BME280;7060;43.770;4.008;2023-01-16T13:58:54;99389.09;;;9.43;59.07
13974;BME280;7060;43.770;4.008;2023-01-16T14:01:34;99361.63;;;9.35;59.67
13974;BME280;7060;43.770;4.008;2023-01-16T14:04:32;99377.63;;;9.35;59.68
13974;BME280;7060;43.770;4.008;2023-01-16T14:07:07;99373.66;;;9.23;60.04
13974;BME280;7060;43.770;4.008;2023-01-16T14:10:22;99127.44;;;7.64;60.41
13974;BME280;7060;43.770;4.008;2023-01-16T14:13:11;99355.00;;;8.98;60.01